createdAt,value
2022-10-05T00:02:00.657Z,-11088.84
2022-10-05T00:05:20.394Z,-11068.78
2022-10-05T00:08:33.176Z,-11062.19
2022-10-05T00:11:39.212Z,-11045.91
2022-10-05T00:14:47.083Z,-11045.34
2022-10-05T00:17:53.037Z,-11051.38
2022-10-05T00:20:59.330Z,-11063.59
2022-10-05T00:24:11.535Z,-11054.03
2022-10-05T00:27:21.063Z,-11071.44
2022-10-05T00:30:32.508Z,-11070.31
2022-10-05T00:33:38.827Z,-11070.75
2022-10-05T00:36:45.628Z,-11056.28
2022-10-05T00:39:53.168Z,-11064.72
2022-10-05T00:43:09.864Z,-11053.19
2022-10-05T00:46:23.195Z,-11053.19
2022-10-05T00:49:51.791Z,-11064.72
2022-10-05T00:53:08.357Z,-11056.16
2022-10-05T00:56:29.651Z,-11044.78
2022-10-05T00:59:50.299Z,-11051.78
2022-10-05T01:03:04.590Z,-11066.66
2022-10-05T01:06:23.486Z,-11071.59
2022-10-05T01:09:37.127Z,-11070.19
2022-10-05T01:12:54.856Z,-11074.41
2022-10-05T01:16:08.637Z,-11050.13
2022-10-05T01:19:35.762Z,-11029.50
2022-10-05T01:23:01.495Z,-11024.88
2022-10-05T01:26:25.378Z,-11043.38
2022-10-05T01:29:36.911Z,-11035.81
2022-10-05T01:32:49.765Z,-11048.44
2022-10-05T01:36:05.575Z,-11023.03
2022-10-05T01:39:22.496Z,-11017.00
2022-10-05T01:42:38.996Z,-11015.75
2022-10-05T01:45:58.415Z,-11018.13
2022-10-05T01:49:22.195Z,-11024.16
2022-10-05T01:52:37.878Z,-11008.03
2022-10-05T01:55:54.238Z,-11013.94
2022-10-05T01:59:16.298Z,-11041.00
2022-10-05T02:02:25.645Z,-11049.28
2022-10-05T02:05:38.895Z,-11055.72
2022-10-05T02:08:50.415Z,-11050.53
2022-10-05T02:12:02.465Z,-11028.78
2022-10-05T02:15:14.887Z,-11014.75
2022-10-05T02:18:27.594Z,-11016.31
2022-10-05T02:21:37.695Z,-11003.25
2022-10-05T02:24:50.196Z,-10995.69
2022-10-05T02:27:59.854Z,-10997.66
2022-10-05T02:31:10.766Z,-11011.69
2022-10-05T02:34:27.527Z,-11022.19
2022-10-05T02:37:42.391Z,-11025.84
2022-10-05T02:40:57.836Z,-11030.63
2022-10-05T02:44:15.088Z,-11049.28
2022-10-05T02:47:29.815Z,-11048.44
2022-10-05T02:50:46.528Z,-11066.94
2022-10-05T02:54:05.049Z,-11039.03
2022-10-05T02:57:22.187Z,-11048.16
2022-10-05T03:00:35.757Z,-11041.97
2022-10-05T03:03:46.439Z,-11044.78
2022-10-05T03:07:00.507Z,-11047.59
2022-10-05T03:10:13.299Z,-11046.59
2022-10-05T03:13:27.536Z,-11053.34
2022-10-05T03:16:45.052Z,-11028.22
2022-10-05T03:20:08.716Z,-11006.34
2022-10-05T03:23:30.895Z,-10990.94
2022-10-05T03:26:46.388Z,-10996.53
2022-10-05T03:30:02.189Z,-10996.25
2022-10-05T03:33:16.165Z,-10999.63
2022-10-05T03:36:28.752Z,-10997.66
2022-10-05T03:39:41.929Z,-11004.81
2022-10-05T03:42:59.810Z,-11019.66
2022-10-05T03:46:11.585Z,-11009.72
2022-10-05T03:49:24.630Z,-11005.66
2022-10-05T03:52:38.749Z,-11025.56
2022-10-05T03:55:51.062Z,-11041.13
2022-10-05T03:59:02.162Z,-11038.88
2022-10-05T04:02:17.015Z,-11041.97
2022-10-05T04:05:28.688Z,-11042.97
2022-10-05T04:08:45.398Z,-11033.28
2022-10-05T04:12:03.514Z,-11039.59
2022-10-05T04:15:19.431Z,-11036.22
2022-10-05T04:18:32.025Z,-11045.91
2022-10-05T04:21:42.629Z,-11035.66
2022-10-05T04:24:55.093Z,-11041.69
2022-10-05T04:28:11.449Z,-11041.13
2022-10-05T04:31:30.978Z,-11035.25
2022-10-05T04:34:50.313Z,-11033.84
2022-10-05T04:38:07.493Z,-11024.88
2022-10-05T04:41:32.207Z,-11024.88
2022-10-05T04:45:02.990Z,-11044.38
2022-10-05T04:48:37.092Z,-11032.16
2022-10-05T04:51:54.175Z,-11033.28
2022-10-05T04:55:21.206Z,-11028.22
2022-10-05T04:58:46.751Z,-10999.06
2022-10-05T05:02:06.852Z,-11005.66
2022-10-05T05:05:48.355Z,-11022.47
2022-10-05T05:09:32.517Z,-11017.56
2022-10-05T05:12:49.211Z,-11031.16
2022-10-05T05:16:02.397Z,-11035.53
2022-10-05T05:19:19.783Z,-11020.09
2022-10-05T05:22:37.464Z,-11023.19
2022-10-05T05:25:51.727Z,-11022.06
2022-10-05T05:29:10.213Z,-11047.31
2022-10-05T05:32:24.762Z,-11069.91
2022-10-05T05:36:05.789Z,-11062.75
2022-10-05T05:39:25.332Z,-11068.22
2022-10-05T05:42:45.039Z,-11066.13
2022-10-05T05:46:00.480Z,-11082.94
2022-10-05T05:49:25.475Z,-11100.66
2022-10-05T05:52:39.578Z,-11109.50
2022-10-05T05:55:49.734Z,-11106.56
2022-10-05T05:59:00.408Z,-11105.16
2022-10-05T06:02:11.721Z,-11108.22
2022-10-05T06:05:29.926Z,-11116.09
2022-10-05T06:08:42.616Z,-11124.53
2022-10-05T06:11:53.452Z,-11123.53
2022-10-05T06:15:06.714Z,-11129.88
2022-10-05T06:18:16.773Z,-11129.59
2022-10-05T06:21:30.266Z,-11148.25
2022-10-05T06:24:44.060Z,-11141.09
2022-10-05T06:28:04.185Z,-11129.88
2022-10-05T06:31:25.293Z,-11160.22
2022-10-05T06:34:54.581Z,-11156.69
2022-10-05T06:38:16.062Z,-11156.84
2022-10-05T06:41:35.629Z,-11175.09
2022-10-05T06:44:53.491Z,-11162.75
2022-10-05T06:48:08.376Z,-11175.66
2022-10-05T06:51:23.427Z,-11194.78
2022-10-05T06:54:47.030Z,-11177.06
2022-10-05T06:58:08.811Z,-11189.16
2022-10-05T07:01:22.177Z,-11192.25
2022-10-05T07:04:56.116Z,-11175.25
2022-10-05T07:08:05.922Z,-11198.59
2022-10-05T07:11:24.109Z,-11212.78
2022-10-05T07:14:44.822Z,-11217.72
2022-10-05T07:18:06.405Z,-11192.81
2022-10-05T07:21:21.671Z,-11203.38
2022-10-05T07:24:33.611Z,-11233.03
2022-10-05T07:27:50.930Z,-11230.94
2022-10-05T07:31:05.065Z,-11229.66
2022-10-05T07:34:20.116Z,-11223.06
2022-10-05T07:37:49.293Z,-11232.19
2022-10-05T07:41:03.370Z,-11229.66
2022-10-05T07:44:16.296Z,-11234.59
2022-10-05T07:47:32.940Z,-11235.31
2022-10-05T07:50:45.671Z,-11247.53
2022-10-05T07:53:59.716Z,-11236.72
2022-10-05T07:57:16.020Z,-11260.91
2022-10-05T08:00:23.969Z,-11269.34
2022-10-05T08:03:42.590Z,-11271.88
2022-10-05T08:06:51.892Z,-11298.34
2022-10-05T08:10:04.512Z,-11286.66
2022-10-05T08:13:17.821Z,-11284.28
2022-10-05T08:16:28.934Z,-11288.78
2022-10-05T08:19:46.976Z,-11296.09
2022-10-05T08:22:59.362Z,-11285.41
2022-10-05T08:26:17.019Z,-11297.91
2022-10-05T08:29:28.855Z,-11297.34
2022-10-05T08:32:41.284Z,-11300.88
2022-10-05T08:35:55.930Z,-11313.56
2022-10-05T08:39:07.115Z,-11319.59
2022-10-05T08:42:43.707Z,-11327.91
2022-10-05T08:46:19.411Z,-11340.59
2022-10-05T08:50:04.820Z,-11335.50
2022-10-05T08:53:37.071Z,-11335.38
2022-10-05T08:56:48.079Z,-11363.97
2022-10-05T09:00:10.572Z,-11328.34
2022-10-05T09:03:52.026Z,-11356.06
2022-10-05T09:07:25.967Z,-11352.84
2022-10-05T09:11:00.752Z,-11365.09
2022-10-05T11:06:51.561Z,-11435.97
2022-10-05T11:10:09.750Z,-11439.78
2022-10-05T11:13:43.151Z,-11437.25
2022-10-05T11:17:23.549Z,-11445.00
2022-10-05T11:21:05.821Z,-11427.53
2022-10-05T11:24:43.614Z,-11430.34
2022-10-05T11:28:10.912Z,-11443.75
2022-10-05T11:31:47.450Z,-11449.09
2022-10-05T11:35:10.994Z,-11451.91
2022-10-05T11:38:41.263Z,-11442.06
2022-10-05T11:42:16.815Z,-11430.50
2022-10-05T11:45:27.518Z,-11440.63
2022-10-05T11:48:46.787Z,-11431.06
2022-10-05T11:52:02.012Z,-11446.28
2022-10-05T11:55:19.682Z,-11464.19
2022-10-05T11:58:30.051Z,-11486.19
2022-10-05T12:01:46.740Z,-11462.63
2022-10-05T12:05:04.635Z,-11472.22
2022-10-05T12:08:28.239Z,-11440.34
2022-10-05T12:11:47.978Z,-11461.94
2022-10-05T12:15:00.659Z,-11476.88
2022-10-05T12:18:15.003Z,-11458.69
2022-10-05T12:21:30.139Z,-11447.97
2022-10-05T12:25:01.647Z,-11485.19
2022-10-05T12:28:13.206Z,-11474.19
2022-10-05T12:31:29.134Z,-11460.38
2022-10-05T12:34:48.767Z,-11461.09
2022-10-05T12:37:58.064Z,-11433.03
2022-10-05T12:41:13.012Z,-11456.00
2022-10-05T12:44:43.714Z,-11476.19
2022-10-05T12:48:07.631Z,-11475.19
2022-10-05T12:51:22.024Z,-11449.09
2022-10-05T12:54:43.543Z,-11478.28
2022-10-05T12:58:05.472Z,-11467.44
2022-10-05T13:01:25.827Z,-11458.97
2022-10-05T13:04:43.446Z,-11454.88
2022-10-05T13:08:06.587Z,-11466.16
2022-10-05T13:11:18.804Z,-11464.88
2022-10-05T13:14:45.494Z,-11448.81
2022-10-05T13:17:59.394Z,-11459.81
2022-10-05T13:21:12.588Z,-11469.41
2022-10-05T13:24:23.614Z,-11479.56
2022-10-05T13:27:32.854Z,-11471.94
2022-10-05T13:30:42.272Z,-11453.63
2022-10-05T13:34:02.572Z,-11473.34
2022-10-05T13:37:21.379Z,-11455.03
2022-10-05T13:40:36.037Z,-11468.00
2022-10-05T13:43:50.099Z,-11454.19
2022-10-05T13:47:02.437Z,-11451.06
2022-10-05T13:50:18.313Z,-11458.53
2022-10-05T13:53:30.171Z,-11463.47
2022-10-05T13:56:42.618Z,-11449.66
2022-10-05T13:59:54.612Z,-11469.13
2022-10-05T14:03:02.303Z,-11447.13
2022-10-05T14:06:14.094Z,-11464.19
2022-10-05T14:09:31.927Z,-11463.63
2022-10-05T14:12:42.339Z,-11486.47
2022-10-05T14:16:04.895Z,-11446.28
2022-10-05T14:19:21.926Z,-11460.94
2022-10-05T14:22:29.362Z,-11476.75
2022-10-05T14:25:50.283Z,-11449.66
2022-10-05T14:29:03.089Z,-11444.59
2022-10-05T14:32:15.808Z,-11432.88
2022-10-05T14:35:24.144Z,-11403.00
2022-10-05T14:38:33.892Z,-11426.53
2022-10-05T14:41:47.138Z,-11407.38
2022-10-05T14:45:12.725Z,-11407.38
2022-10-05T14:48:19.397Z,-11402.88
2022-10-05T14:51:32.762Z,-11433.03
2022-10-05T14:54:53.934Z,-11407.22
2022-10-05T14:58:12.543Z,-11379.19
2022-10-05T15:01:27.617Z,-11385.09
2022-10-05T15:04:43.911Z,-11372.56
2022-10-05T15:07:51.946Z,-11371.00
2022-10-05T15:11:04.376Z,-11355.78
2022-10-05T15:14:18.735Z,-11357.63
2022-10-05T15:17:28.492Z,-11343.97
2022-10-05T15:20:43.823Z,-11347.06
2022-10-05T15:23:55.319Z,-11336.94
2022-10-05T15:27:04.755Z,-11335.22
2022-10-05T15:30:15.439Z,-11330.16
2022-10-05T15:33:30.383Z,-11319.19
2022-10-05T15:36:43.083Z,-11316.66
2022-10-05T15:39:54.888Z,-11314.81
2022-10-05T15:43:04.995Z,-11310.72
2022-10-05T15:46:15.105Z,-11307.91
2022-10-05T15:49:28.890Z,-11308.19
2022-10-05T15:52:42.027Z,-11311.84
2022-10-05T15:55:53.373Z,-11310.44
2022-10-05T15:59:07.378Z,-11302.56
2022-10-05T16:02:21.132Z,-11306.94
2022-10-05T16:05:59.226Z,-11320.03
2022-10-05T16:09:18.864Z,-11310.72
2022-10-05T16:12:39.812Z,-11293.00
2022-10-05T16:15:52.037Z,-11292.28
2022-10-05T16:19:09.738Z,-11285.53
2022-10-05T16:22:25.477Z,-11271.59
2022-10-05T16:25:44.558Z,-11267.94
2022-10-05T16:29:00.844Z,-11269.63
2022-10-05T16:32:11.518Z,-11262.31
2022-10-05T16:35:29.232Z,-11269.06
2022-10-05T16:38:46.149Z,-11257.09
2022-10-05T16:42:00.588Z,-11263.72
2022-10-05T16:45:21.720Z,-11259.50
2022-10-05T16:48:33.084Z,-11251.91
2022-10-05T16:51:48.130Z,-11256.25
2022-10-05T16:54:59.032Z,-11244.88
2022-10-05T16:58:11.866Z,-11243.47
2022-10-05T17:01:29.367Z,-11239.09
2022-10-05T17:04:46.720Z,-11241.47
2022-10-05T17:08:02.484Z,-11236.84
2022-10-05T17:11:19.922Z,-11237.28
2022-10-05T17:14:38.576Z,-11234.03
2022-10-05T17:18:01.496Z,-11236.56
2022-10-05T17:21:16.672Z,-11228.25
2022-10-05T17:24:34.463Z,-11231.78
2022-10-05T17:27:54.270Z,-11231.78
2022-10-05T17:31:16.688Z,-11227.13
2022-10-05T17:34:27.780Z,-11219.25
2022-10-05T17:37:36.847Z,-11213.22
2022-10-05T17:41:05.606Z,-11218.97
2022-10-05T17:44:26.391Z,-11217.28
2022-10-05T17:47:56.651Z,-11211.66
2022-10-05T17:51:28.804Z,-11216.72
2022-10-05T17:55:30.201Z,-11221.09
2022-10-05T17:59:04.894Z,-11210.53
2022-10-05T18:02:22.675Z,-11212.50
2022-10-05T18:05:30.440Z,-11210.81
2022-10-05T18:08:40.352Z,-11208.84
2022-10-05T18:12:10.575Z,-11197.59
2022-10-05T18:15:46.203Z,-11206.31
2022-10-05T18:18:59.334Z,-11210.13
2022-10-05T18:22:28.428Z,-11203.22
2022-10-05T18:25:41.429Z,-11211.09
2022-10-05T18:28:57.503Z,-11208.84
2022-10-05T18:32:13.724Z,-11207.31
2022-10-05T18:35:27.551Z,-11203.22
2022-10-05T18:38:51.422Z,-11188.19
2022-10-05T18:42:07.182Z,-11173.44
2022-10-05T18:45:24.847Z,-11174.69
2022-10-05T18:48:41.315Z,-11174.25
2022-10-05T18:51:58.693Z,-11173.44
2022-10-05T18:55:16.087Z,-11166.25
2022-10-05T18:58:27.779Z,-11171.75
2022-10-05T19:01:56.328Z,-11173.44
2022-10-05T19:05:45.794Z,-11171.59
2022-10-05T19:08:56.157Z,-11168.22
2022-10-05T19:12:11.117Z,-11161.63
2022-10-05T19:15:27.707Z,-11168.37
2022-10-05T19:18:50.981Z,-11168.50
2022-10-05T19:22:04.465Z,-11143.78
2022-10-05T19:25:27.280Z,-11143.91
2022-10-05T19:28:38.452Z,-11143.06
2022-10-05T19:31:51.390Z,-11145.31
2022-10-05T19:35:14.044Z,-11153.03
2022-10-05T19:38:27.240Z,-11151.63
2022-10-05T19:41:54.533Z,-11142.22
2022-10-05T19:45:14.130Z,-11139.69
2022-10-05T19:48:31.175Z,-11151.91
2022-10-05T19:51:49.810Z,-11162.59
2022-10-05T19:55:07.558Z,-11144.91
2022-10-05T19:58:24.636Z,-11143.06
2022-10-05T20:01:34.138Z,-11159.38
2022-10-05T20:04:42.671Z,-11155.00
2022-10-05T20:07:49.186Z,-11161.34
2022-10-05T20:11:06.875Z,-11165.84
2022-10-05T20:14:22.434Z,-11156.56
2022-10-05T20:17:46.844Z,-11130.69
2022-10-05T20:20:53.102Z,-11137.72
2022-10-05T20:24:10.934Z,-11125.38
2022-10-05T20:27:43.643Z,-11125.50
2022-10-05T20:30:52.660Z,-11136.19
2022-10-05T20:34:00.652Z,-11142.22
2022-10-05T20:37:06.696Z,-11123.97
2022-10-05T20:40:14.923Z,-11127.91
2022-10-05T20:43:20.847Z,-11120.03
2022-10-05T20:46:28.295Z,-11123.41
2022-10-05T20:49:36.724Z,-11118.91
2022-10-05T20:52:42.944Z,-11128.47
2022-10-05T20:55:49.146Z,-11115.53
2022-10-05T20:58:55.355Z,-11128.31
2022-10-05T21:02:04.058Z,-11134.91
2022-10-05T21:05:10.725Z,-11112.03
2022-10-05T21:08:17.952Z,-11097.97
2022-10-05T21:11:24.405Z,-11081.00
2022-10-05T21:14:34.388Z,-11117.78
2022-10-05T21:17:42.168Z,-11095.31
2022-10-05T21:20:49.224Z,-11092.94
2022-10-05T21:23:55.985Z,-11089.69
2022-10-05T21:27:02.303Z,-11100.94
2022-10-05T21:30:10.159Z,-11093.06
2022-10-05T21:33:17.946Z,-11104.44
2022-10-05T21:36:24.994Z,-11102.91
2022-10-05T21:39:31.296Z,-11109.63
2022-10-05T21:42:37.782Z,-11118.47
2022-10-05T21:45:45.501Z,-11107.97
2022-10-05T21:48:54.413Z,-11101.22
2022-10-05T21:52:02.359Z,-11098.81
2022-10-05T21:55:09.611Z,-11100.09
2022-10-05T21:58:17.024Z,-11115.25
2022-10-05T22:01:23.419Z,-11115.41
2022-10-05T22:04:30.939Z,-11089.13
2022-10-05T22:07:37.308Z,-11102.75
2022-10-05T22:10:44.278Z,-11078.75
2022-10-05T22:13:52.835Z,-11092.94
2022-10-05T22:16:59.099Z,-11072.84
2022-10-05T22:20:08.336Z,-11082.25
2022-10-05T22:23:14.397Z,-11100.94
2022-10-05T22:26:23.835Z,-11100.50
2022-10-05T22:29:30.102Z,-11102.75
2022-10-05T22:32:36.418Z,-11082.81
2022-10-05T22:35:44.447Z,-11067.22
2022-10-05T22:38:50.673Z,-11077.06
2022-10-05T22:41:57.892Z,-11082.94
2022-10-05T22:45:03.871Z,-11079.03
2022-10-05T22:48:10.235Z,-11085.47
2022-10-05T22:51:17.832Z,-11087.16
2022-10-05T22:54:28.773Z,-11098.13
2022-10-05T22:57:39.600Z,-11081.00
2022-10-05T23:00:58.031Z,-11083.78
2022-10-05T23:04:05.562Z,-11077.19
2022-10-05T23:07:13.264Z,-11071.16
2022-10-05T23:10:21.034Z,-11068.78
2022-10-05T23:13:27.028Z,-11080.44
2022-10-05T23:16:33.129Z,-11065.28
2022-10-05T23:19:39.491Z,-11086.31
2022-10-05T23:22:47.023Z,-11084.63
2022-10-05T23:25:52.936Z,-11074.13
2022-10-05T23:28:59.485Z,-11052.34
2022-10-05T23:32:05.817Z,-11048.16
2022-10-05T23:35:13.423Z,-11064.72
2022-10-05T23:38:21.117Z,-11052.34
2022-10-05T23:41:27.714Z,-11041.84
2022-10-05T23:44:34.063Z,-11036.94
2022-10-05T23:47:40.755Z,-11035.81
2022-10-05T23:50:48.034Z,-11041.97
2022-10-05T23:53:55.750Z,-11045.78
2022-10-05T23:57:01.782Z,-11056.56
